createdAt,value
2023-03-29T00:01:52.868Z,48.86
2023-03-29T00:04:23.482Z,49.71
2023-03-29T00:06:50.875Z,49.39
2023-03-29T00:09:18.492Z,49.80
2023-03-29T00:11:45.508Z,49.72
2023-03-29T00:14:12.810Z,49.38
2023-03-29T00:16:39.659Z,49.15
2023-03-29T00:19:06.533Z,50.24
2023-03-29T00:21:33.455Z,49.21
2023-03-29T00:24:00.556Z,48.92
2023-03-29T00:26:27.401Z,49.64
2023-03-29T00:28:54.348Z,49.86
2023-03-29T00:31:21.342Z,49.01
2023-03-29T00:33:48.312Z,49.70
2023-03-29T00:36:16.153Z,49.38
2023-03-29T00:38:43.300Z,49.29
2023-03-29T00:41:10.869Z,49.32
2023-03-29T00:43:59.711Z,48.26
2023-03-29T00:46:27.718Z,47.99
2023-03-29T00:48:58.096Z,49.29
2023-03-29T00:51:26.999Z,49.39
2023-03-29T00:53:59.026Z,50.94
2023-03-29T00:56:32.014Z,51.16
2023-03-29T00:59:05.593Z,51.00
2023-03-29T01:01:54.985Z,50.42
2023-03-29T01:04:34.180Z,49.70
2023-03-29T01:07:07.777Z,50.41
2023-03-29T01:09:37.835Z,50.54
2023-03-29T01:12:20.087Z,50.07
2023-03-29T01:15:02.390Z,51.55
2023-03-29T01:17:32.023Z,52.75
2023-03-29T01:19:59.950Z,52.14
2023-03-29T01:22:42.870Z,51.47
2023-03-29T01:25:41.589Z,51.69
2023-03-29T01:28:13.661Z,51.63
2023-03-29T01:30:49.489Z,52.48
2023-03-29T01:33:23.805Z,52.36
2023-03-29T01:36:12.166Z,53.09
2023-03-29T01:38:57.433Z,56.15
2023-03-29T01:41:28.820Z,57.90
2023-03-29T01:43:58.819Z,56.19
2023-03-29T01:46:42.676Z,54.31
2023-03-29T01:49:35.031Z,55.34
2023-03-29T01:52:09.252Z,55.24
2023-03-29T01:54:38.724Z,54.89
2023-03-29T01:57:06.289Z,55.70
2023-03-29T01:59:34.858Z,55.05
2023-03-29T02:02:05.887Z,55.15
2023-03-29T02:04:38.532Z,55.02
2023-03-29T02:07:07.592Z,55.29
2023-03-29T02:09:34.544Z,54.37
2023-03-29T02:12:01.572Z,54.71
2023-03-29T02:14:30.759Z,54.60
2023-03-29T02:16:57.618Z,54.50
2023-03-29T02:19:25.478Z,53.28
2023-03-29T02:22:10.551Z,53.01
2023-03-29T02:24:37.642Z,53.90
2023-03-29T02:27:04.571Z,53.95
2023-03-29T02:29:31.377Z,53.70
2023-03-29T02:32:13.391Z,53.88
2023-03-29T02:35:08.225Z,52.47
2023-03-29T02:37:36.577Z,52.51
2023-03-29T02:40:08.200Z,52.73
2023-03-29T02:42:35.069Z,52.90
2023-03-29T02:45:02.292Z,53.09
2023-03-29T02:47:35.470Z,53.43
2023-03-29T02:50:02.441Z,54.39
2023-03-29T02:52:35.203Z,54.91
2023-03-29T02:55:03.341Z,55.49
2023-03-29T02:57:32.584Z,55.44
2023-03-29T03:00:00.094Z,55.40
2023-03-29T03:02:28.239Z,55.16
2023-03-29T03:04:55.319Z,54.93
2023-03-29T03:07:22.244Z,54.47
2023-03-29T03:09:49.239Z,54.48
2023-03-29T03:12:16.189Z,54.33
2023-03-29T03:14:43.552Z,54.16
2023-03-29T03:17:10.550Z,54.31
2023-03-29T03:19:38.388Z,54.53
2023-03-29T03:22:06.174Z,54.41
2023-03-29T03:24:33.190Z,54.48
2023-03-29T03:27:00.422Z,54.43
2023-03-29T03:29:28.603Z,54.14
2023-03-29T03:31:56.055Z,53.32
2023-03-29T03:34:23.157Z,52.21
2023-03-29T03:36:50.868Z,52.32
2023-03-29T03:39:17.777Z,51.82
2023-03-29T03:41:44.650Z,51.69
2023-03-29T03:44:12.068Z,52.55
2023-03-29T03:46:38.956Z,53.09
2023-03-29T03:49:05.940Z,53.94
2023-03-29T03:51:32.951Z,54.12
2023-03-29T03:53:59.901Z,54.34
2023-03-29T03:56:30.165Z,53.93
2023-03-29T03:58:57.691Z,54.63
2023-03-29T04:01:24.748Z,54.87
2023-03-29T04:03:51.767Z,55.24
2023-03-29T04:06:18.877Z,55.65
2023-03-29T04:08:45.806Z,56.56
2023-03-29T04:11:12.664Z,57.12
2023-03-29T04:13:39.699Z,56.55
2023-03-29T04:16:07.739Z,56.33
2023-03-29T04:18:34.805Z,56.64
2023-03-29T04:21:02.191Z,56.16
2023-03-29T04:23:29.208Z,56.44
2023-03-29T04:25:59.834Z,56.48
2023-03-29T04:28:26.748Z,56.73
2023-03-29T04:30:53.719Z,56.91
2023-03-29T04:33:21.447Z,57.09
2023-03-29T04:35:48.324Z,57.26
2023-03-29T04:38:17.018Z,57.51
2023-03-29T04:40:44.375Z,57.91
2023-03-29T04:43:11.414Z,58.65
2023-03-29T04:45:38.439Z,58.63
2023-03-29T04:48:06.032Z,58.36
2023-03-29T04:50:33.222Z,58.51
2023-03-29T04:53:00.588Z,58.45
2023-03-29T04:55:27.720Z,58.80
2023-03-29T04:57:55.803Z,58.24
2023-03-29T05:00:27.540Z,57.62
2023-03-29T05:02:55.109Z,58.31
2023-03-29T05:05:22.458Z,58.21
2023-03-29T05:07:50.050Z,57.90
2023-03-29T05:10:17.550Z,58.33
2023-03-29T05:12:44.776Z,58.61
2023-03-29T05:15:11.872Z,58.17
2023-03-29T05:17:39.614Z,57.94
2023-03-29T05:20:09.810Z,58.29
2023-03-29T05:22:36.748Z,58.26
2023-03-29T05:25:04.324Z,57.63
2023-03-29T05:27:31.171Z,58.39
2023-03-29T05:29:58.039Z,58.25
2023-03-29T05:32:25.100Z,58.58
2023-03-29T05:34:53.150Z,57.66
2023-03-29T05:37:20.340Z,57.85
2023-03-29T05:39:49.131Z,57.65
2023-03-29T05:42:16.473Z,57.22
2023-03-29T05:44:43.420Z,57.35
2023-03-29T05:47:10.813Z,57.40
2023-03-29T05:49:38.275Z,56.46
2023-03-29T05:52:06.864Z,55.48
2023-03-29T05:54:49.281Z,55.57
2023-03-29T05:57:16.432Z,55.51
2023-03-29T05:59:43.268Z,55.87
2023-03-29T06:02:11.874Z,55.64
2023-03-29T06:04:38.775Z,55.61
2023-03-29T06:07:06.033Z,54.31
2023-03-29T06:09:33.808Z,53.67
2023-03-29T06:12:02.133Z,53.10
2023-03-29T06:14:29.163Z,52.93
2023-03-29T06:16:56.728Z,52.63
2023-03-29T06:19:24.404Z,52.34
2023-03-29T06:21:53.348Z,53.18
2023-03-29T06:24:20.774Z,53.04
2023-03-29T06:26:47.712Z,52.66
2023-03-29T06:29:15.074Z,52.35
2023-03-29T06:31:42.475Z,55.47
2023-03-29T06:34:09.601Z,54.06
2023-03-29T06:36:37.104Z,53.35
2023-03-29T06:39:04.477Z,52.26
2023-03-29T06:41:32.057Z,52.42
2023-03-29T06:43:59.175Z,51.00
2023-03-29T06:46:26.366Z,50.71
2023-03-29T06:48:53.673Z,49.73
2023-03-29T06:51:23.183Z,50.53
2023-03-29T06:53:50.753Z,49.04
2023-03-29T06:56:17.752Z,49.73
2023-03-29T06:58:45.285Z,50.30
2023-03-29T07:01:13.048Z,50.50
2023-03-29T07:03:41.520Z,51.25
2023-03-29T07:06:12.473Z,49.84
2023-03-29T07:08:43.830Z,49.14
2023-03-29T07:11:12.745Z,49.46
2023-03-29T07:13:43.167Z,48.71
2023-03-29T07:16:14.048Z,47.55
2023-03-29T07:18:41.948Z,46.87
2023-03-29T07:21:08.863Z,46.99
2023-03-29T07:23:36.287Z,46.48
2023-03-29T07:26:04.116Z,46.25
2023-03-29T07:28:31.374Z,45.41
2023-03-29T07:31:11.360Z,45.09
2023-03-29T07:33:38.679Z,45.04
2023-03-29T07:36:06.582Z,45.13
2023-03-29T07:38:33.534Z,44.89
2023-03-29T07:41:04.192Z,43.98
2023-03-29T07:43:31.592Z,43.75
2023-03-29T07:46:05.598Z,43.11
2023-03-29T07:48:33.241Z,43.47
2023-03-29T07:51:00.368Z,42.96
2023-03-29T07:53:29.867Z,42.59
2023-03-29T07:55:57.348Z,42.00
2023-03-29T07:58:24.463Z,42.31
2023-03-29T08:00:51.522Z,42.37
2023-03-29T08:03:18.546Z,41.17
2023-03-29T08:05:45.518Z,40.53
2023-03-29T08:08:14.398Z,39.87
2023-03-29T08:10:42.830Z,39.65
2023-03-29T08:13:09.853Z,39.10
2023-03-29T08:15:38.641Z,39.58
2023-03-29T08:18:06.972Z,38.59
2023-03-29T08:20:33.898Z,38.65
2023-03-29T08:23:01.249Z,38.45
2023-03-29T08:25:28.091Z,38.29
2023-03-29T08:27:54.930Z,35.97
2023-03-29T08:30:22.110Z,35.26
2023-03-29T08:32:52.290Z,34.78
2023-03-29T08:35:22.179Z,34.38
2023-03-29T08:37:49.101Z,33.39
2023-03-29T08:40:21.576Z,28.58
2023-03-29T08:43:12.840Z,28.80
2023-03-29T08:45:54.532Z,27.18
2023-03-29T08:48:28.724Z,26.40
2023-03-29T08:51:02.275Z,27.55
2023-03-29T08:53:35.906Z,26.00
2023-03-29T08:56:07.227Z,26.15
2023-03-29T08:58:34.220Z,25.74
2023-03-29T09:01:02.065Z,25.88
2023-03-29T09:03:35.252Z,26.60
2023-03-29T09:06:07.135Z,26.64
2023-03-29T09:08:42.229Z,26.83
2023-03-29T09:11:12.176Z,27.46
2023-03-29T09:13:41.407Z,28.04
2023-03-29T09:16:20.327Z,27.76
2023-03-29T09:18:50.037Z,27.86
2023-03-29T09:21:56.795Z,28.55
2023-03-29T09:24:33.905Z,28.38
2023-03-29T09:27:08.937Z,28.38
2023-03-29T09:29:53.276Z,28.60
2023-03-29T09:32:22.680Z,28.25
2023-03-29T09:35:14.610Z,28.56
2023-03-29T09:37:41.947Z,28.32
2023-03-29T09:40:14.828Z,32.53
2023-03-29T09:42:41.761Z,31.38
2023-03-29T09:45:09.437Z,32.04
2023-03-29T09:48:02.471Z,33.47
2023-03-29T09:50:38.101Z,34.94
2023-03-29T09:53:05.856Z,35.37
2023-03-29T09:55:34.277Z,36.97
2023-03-29T09:58:01.996Z,37.20
2023-03-29T10:00:28.959Z,38.37
2023-03-29T10:02:58.124Z,37.63
2023-03-29T10:05:25.869Z,37.03
2023-03-29T10:07:54.514Z,37.79
2023-03-29T10:10:28.775Z,38.88
2023-03-29T10:13:00.135Z,39.64
2023-03-29T10:15:30.797Z,38.94
2023-03-29T10:17:59.849Z,39.93
2023-03-29T10:20:26.630Z,39.91
2023-03-29T10:22:58.552Z,39.76
2023-03-29T10:25:33.259Z,39.58
2023-03-29T10:28:17.739Z,39.23
2023-03-29T10:30:46.149Z,39.17
2023-03-29T10:33:16.687Z,39.37
2023-03-29T10:35:43.822Z,38.24
2023-03-29T10:38:13.607Z,38.23
2023-03-29T10:40:45.830Z,37.48
2023-03-29T10:43:38.785Z,37.92
2023-03-29T10:46:18.374Z,38.59
2023-03-29T10:48:50.816Z,38.08
2023-03-29T10:51:18.846Z,37.01
2023-03-29T10:53:46.115Z,37.47
2023-03-29T10:56:18.946Z,36.77
2023-03-29T10:58:48.837Z,36.05
2023-03-29T11:01:41.639Z,35.68
2023-03-29T11:04:28.646Z,36.10
2023-03-29T11:07:11.254Z,36.06
2023-03-29T11:09:59.749Z,35.25
2023-03-29T11:13:08.685Z,35.68
2023-03-29T11:15:52.089Z,35.94
2023-03-29T11:18:30.746Z,35.22
2023-03-29T11:21:10.732Z,35.62
2023-03-29T11:24:03.658Z,35.34
2023-03-29T11:26:30.712Z,36.32
2023-03-29T11:29:09.608Z,37.20
2023-03-29T11:31:38.813Z,37.27
2023-03-29T11:34:15.748Z,37.48
2023-03-29T11:36:50.653Z,36.89
2023-03-29T11:39:27.317Z,36.05
2023-03-29T11:41:55.319Z,36.54
2023-03-29T11:44:28.148Z,36.35
2023-03-29T11:47:03.749Z,37.74
2023-03-29T11:49:42.055Z,37.58
2023-03-29T11:52:14.836Z,37.86
2023-03-29T11:55:04.248Z,38.48
2023-03-29T11:57:54.198Z,38.28
2023-03-29T12:00:33.398Z,40.04
2023-03-29T12:03:02.991Z,39.78
2023-03-29T12:05:36.967Z,39.28
2023-03-29T12:08:16.713Z,39.93
2023-03-29T12:10:50.883Z,39.32
2023-03-29T12:13:29.554Z,39.47
2023-03-29T12:15:58.183Z,39.43
2023-03-29T12:18:34.295Z,39.77
2023-03-29T12:21:03.597Z,39.22
2023-03-29T12:23:33.743Z,39.44
2023-03-29T12:26:06.635Z,38.79
2023-03-29T12:28:58.854Z,38.97
2023-03-29T12:31:52.910Z,37.99
2023-03-29T12:34:31.243Z,38.21
2023-03-29T12:37:19.269Z,36.59
2023-03-29T12:39:46.336Z,37.05
2023-03-29T12:42:18.234Z,36.74
2023-03-29T12:44:59.068Z,36.25
2023-03-29T12:47:30.320Z,36.02
2023-03-29T12:49:58.635Z,35.88
2023-03-29T12:52:35.642Z,36.41
2023-03-29T12:55:05.128Z,36.73
2023-03-29T12:57:37.911Z,36.28
2023-03-29T13:00:25.762Z,35.32
2023-03-29T13:03:03.886Z,35.92
2023-03-29T13:05:35.401Z,33.88
2023-03-29T13:08:23.529Z,35.83
2023-03-29T13:10:54.938Z,35.99
2023-03-29T13:13:31.191Z,35.70
2023-03-29T13:16:18.893Z,35.29
2023-03-29T13:19:11.617Z,35.16
2023-03-29T13:22:02.504Z,34.54
2023-03-29T13:24:45.152Z,36.00
2023-03-29T13:27:58.466Z,35.65
2023-03-29T13:30:31.115Z,35.12
2023-03-29T13:33:07.630Z,35.83
2023-03-29T13:35:59.150Z,34.19
2023-03-29T13:38:31.832Z,34.90
2023-03-29T13:41:04.226Z,36.29
2023-03-29T13:43:35.532Z,35.93
2023-03-29T13:46:03.905Z,35.31
2023-03-29T13:48:33.929Z,35.19
2023-03-29T13:51:19.530Z,34.34
2023-03-29T13:54:15.119Z,36.35
2023-03-29T13:57:04.389Z,34.77
2023-03-29T13:59:59.508Z,36.55
2023-03-29T14:02:48.093Z,35.49
2023-03-29T14:05:18.745Z,35.88
2023-03-29T14:07:53.488Z,36.67
2023-03-29T14:10:25.939Z,36.11
2023-03-29T14:12:53.214Z,36.33
2023-03-29T14:15:25.354Z,36.68
2023-03-29T14:17:58.964Z,36.90
2023-03-29T14:20:27.668Z,35.92
2023-03-29T14:22:54.714Z,35.08
2023-03-29T14:25:22.824Z,35.05
2023-03-29T14:27:50.149Z,35.86
2023-03-29T14:30:27.838Z,35.55
2023-03-29T14:32:55.190Z,35.40
2023-03-29T14:35:27.619Z,35.01
2023-03-29T14:37:54.594Z,34.59
2023-03-29T14:40:22.106Z,34.59
2023-03-29T14:42:49.245Z,33.96
2023-03-29T14:45:17.863Z,33.79
2023-03-29T14:47:44.929Z,32.85
2023-03-29T14:50:38.249Z,33.24
2023-03-29T14:53:06.167Z,33.15
2023-03-29T14:55:33.181Z,31.99
2023-03-29T14:58:00.736Z,32.61
2023-03-29T15:00:30.391Z,32.68
2023-03-29T15:02:59.628Z,32.63
2023-03-29T15:05:31.548Z,32.02
2023-03-29T15:07:58.558Z,32.28
2023-03-29T15:10:25.775Z,32.62
2023-03-29T15:12:52.893Z,31.95
2023-03-29T15:15:20.021Z,31.52
2023-03-29T15:17:50.853Z,31.98
2023-03-29T15:20:25.144Z,30.80
2023-03-29T15:23:04.391Z,30.30
2023-03-29T15:25:58.856Z,31.95
2023-03-29T15:28:36.133Z,31.94
2023-03-29T15:31:13.383Z,32.97
2023-03-29T15:33:41.175Z,33.31
2023-03-29T15:36:09.202Z,33.75
2023-03-29T15:38:44.148Z,34.09
2023-03-29T15:41:13.580Z,33.69
2023-03-29T15:43:41.538Z,34.95
2023-03-29T15:46:08.973Z,33.86
2023-03-29T15:48:36.136Z,33.72
2023-03-29T15:51:06.495Z,34.28
2023-03-29T15:53:36.309Z,34.81
2023-03-29T15:56:04.318Z,33.99
2023-03-29T15:58:31.982Z,33.29
2023-03-29T16:01:11.605Z,34.06
2023-03-29T16:03:42.016Z,33.67
2023-03-29T16:06:12.462Z,34.00
2023-03-29T16:08:39.361Z,35.75
2023-03-29T16:11:07.184Z,37.70
2023-03-29T16:13:34.129Z,38.86
2023-03-29T16:16:01.630Z,38.80
2023-03-29T16:18:28.825Z,39.56
2023-03-29T16:20:56.961Z,39.90
2023-03-29T16:23:23.872Z,41.00
2023-03-29T16:25:51.119Z,40.21
2023-03-29T16:28:18.129Z,40.94
2023-03-29T16:30:45.043Z,41.57
2023-03-29T16:33:11.915Z,42.68
2023-03-29T16:35:42.598Z,42.88
2023-03-29T16:38:09.768Z,44.25
2023-03-29T16:40:36.977Z,43.15
2023-03-29T16:43:04.057Z,44.57
2023-03-29T16:45:31.218Z,45.90
2023-03-29T16:47:58.244Z,44.72
2023-03-29T16:50:25.223Z,43.33
2023-03-29T16:52:52.860Z,41.87
2023-03-29T16:55:20.413Z,42.62
2023-03-29T16:57:47.890Z,44.48
2023-03-29T17:00:16.367Z,45.54
2023-03-29T17:02:44.089Z,45.92
2023-03-29T17:05:14.277Z,45.53
2023-03-29T17:07:41.388Z,44.41
2023-03-29T17:10:08.582Z,44.32
2023-03-29T17:12:35.809Z,43.68
2023-03-29T17:15:04.452Z,44.66
2023-03-29T17:17:32.037Z,43.90
2023-03-29T17:19:59.107Z,44.21
2023-03-29T17:22:25.992Z,44.52
2023-03-29T17:24:52.888Z,44.74
2023-03-29T17:27:19.897Z,44.85
2023-03-29T17:29:46.779Z,44.70
2023-03-29T17:32:13.692Z,45.16
2023-03-29T17:34:41.161Z,45.16
2023-03-29T17:37:08.084Z,45.18
2023-03-29T17:39:37.772Z,44.95
2023-03-29T17:42:05.474Z,45.47
2023-03-29T17:44:33.577Z,45.71
2023-03-29T17:47:01.522Z,46.15
2023-03-29T17:49:28.783Z,46.68
2023-03-29T17:51:56.078Z,47.37
2023-03-29T17:54:23.040Z,46.99
2023-03-29T17:56:50.793Z,47.63
2023-03-29T17:59:17.743Z,47.13
2023-03-29T18:01:44.724Z,47.83
2023-03-29T18:04:11.735Z,47.65
2023-03-29T18:06:38.731Z,47.84
2023-03-29T18:09:05.844Z,48.33
2023-03-29T18:11:32.862Z,47.65
2023-03-29T18:14:00.592Z,48.42
2023-03-29T18:16:27.638Z,48.85
2023-03-29T18:18:54.558Z,48.41
2023-03-29T18:21:22.440Z,49.63
2023-03-29T18:23:49.397Z,50.06
2023-03-29T18:26:16.744Z,49.92
2023-03-29T18:28:47.396Z,50.20
2023-03-29T18:31:14.802Z,50.07
2023-03-29T18:33:41.795Z,49.61
2023-03-29T18:36:11.992Z,49.08
2023-03-29T18:38:40.757Z,48.64
2023-03-29T18:41:08.750Z,48.67
2023-03-29T18:43:36.213Z,48.92
2023-03-29T18:46:03.430Z,48.84
2023-03-29T18:48:31.590Z,48.82
2023-03-29T18:50:58.503Z,48.63
2023-03-29T18:53:26.432Z,48.78
2023-03-29T18:55:53.405Z,49.16
2023-03-29T18:58:24.306Z,48.98
2023-03-29T19:00:51.892Z,49.19
2023-03-29T19:03:18.843Z,49.52
2023-03-29T19:05:45.709Z,49.69
2023-03-29T19:08:12.580Z,49.43
2023-03-29T19:10:39.533Z,48.92
2023-03-29T19:13:06.411Z,48.97
2023-03-29T19:15:34.963Z,48.85
2023-03-29T19:18:02.016Z,48.79
2023-03-29T19:20:29.573Z,49.06
2023-03-29T19:22:56.619Z,49.30
2023-03-29T19:25:23.501Z,49.42
2023-03-29T19:27:50.577Z,49.75
2023-03-29T19:30:18.626Z,49.89
2023-03-29T19:32:45.809Z,50.44
2023-03-29T19:35:13.550Z,50.44
2023-03-29T19:37:40.587Z,50.64
2023-03-29T19:40:11.276Z,50.81
2023-03-29T19:42:38.800Z,51.09
2023-03-29T19:45:06.806Z,51.57
2023-03-29T19:47:34.403Z,51.58
2023-03-29T19:50:01.468Z,51.55
2023-03-29T19:52:28.856Z,51.13
2023-03-29T19:54:57.023Z,51.83
2023-03-29T19:57:24.525Z,52.75
2023-03-29T19:59:54.014Z,53.33
2023-03-29T20:02:21.025Z,53.57
2023-03-29T20:04:47.904Z,54.58
2023-03-29T20:07:14.712Z,55.58
2023-03-29T20:09:44.646Z,55.51
2023-03-29T20:12:12.421Z,55.99
2023-03-29T20:14:40.474Z,56.54
2023-03-29T20:17:07.629Z,57.44
2023-03-29T20:19:36.777Z,58.07
2023-03-29T20:22:04.601Z,58.57
2023-03-29T20:24:32.836Z,59.56
2023-03-29T20:26:59.762Z,59.15
2023-03-29T20:29:27.522Z,59.19
2023-03-29T20:31:54.493Z,58.95
2023-03-29T20:34:22.386Z,60.18
2023-03-29T20:36:49.444Z,60.08
2023-03-29T20:39:20.034Z,58.93
2023-03-29T20:41:48.186Z,58.71
2023-03-29T20:44:17.099Z,58.82
2023-03-29T20:46:54.616Z,58.85
2023-03-29T20:49:26.691Z,59.17
2023-03-29T20:51:58.751Z,59.15
2023-03-29T20:54:26.294Z,59.46
2023-03-29T20:56:55.100Z,59.16
2023-03-29T20:59:23.014Z,58.99
2023-03-29T21:01:50.741Z,59.59
2023-03-29T21:04:17.805Z,59.73
2023-03-29T21:06:45.870Z,59.42
2023-03-29T21:09:13.961Z,59.95
2023-03-29T21:11:41.111Z,60.20
2023-03-29T21:14:09.510Z,60.11
2023-03-29T21:16:36.564Z,60.28
2023-03-29T21:19:03.406Z,60.52
2023-03-29T21:21:30.444Z,60.92
2023-03-29T21:23:57.359Z,61.28
2023-03-29T21:26:24.270Z,61.31
2023-03-29T21:28:51.146Z,61.70
2023-03-29T21:31:18.111Z,62.02
2023-03-29T21:33:45.148Z,61.99
2023-03-29T21:36:12.108Z,62.49
2023-03-29T21:38:39.069Z,62.61
2023-03-29T21:41:07.151Z,62.76
2023-03-29T21:43:34.033Z,62.34
2023-03-29T21:46:01.093Z,62.41
2023-03-29T21:48:27.934Z,62.31
2023-03-29T21:50:55.206Z,62.33
2023-03-29T21:53:22.081Z,61.92
2023-03-29T21:55:49.702Z,61.71
2023-03-29T21:58:16.841Z,61.19
2023-03-29T22:00:44.000Z,61.09
2023-03-29T22:03:11.003Z,60.98
2023-03-29T22:05:37.974Z,60.13
2023-03-29T22:08:05.381Z,59.82
2023-03-29T22:10:33.308Z,60.20
2023-03-29T22:13:00.813Z,59.63
2023-03-29T22:15:29.527Z,59.42
2023-03-29T22:17:59.225Z,59.37
2023-03-29T22:20:27.903Z,58.97
2023-03-29T22:22:55.743Z,58.55
2023-03-29T22:25:24.730Z,58.04
2023-03-29T22:27:51.656Z,57.95
2023-03-29T22:30:18.633Z,58.13
2023-03-29T22:32:45.639Z,57.70
2023-03-29T22:35:12.607Z,57.10
2023-03-29T22:37:43.439Z,57.22
2023-03-29T22:40:12.267Z,57.52
2023-03-29T22:42:39.148Z,57.00
2023-03-29T22:45:06.721Z,56.97
2023-03-29T22:47:35.542Z,57.17
2023-03-29T22:50:02.381Z,56.95
2023-03-29T22:52:29.380Z,56.97
2023-03-29T22:54:56.793Z,57.33
2023-03-29T22:57:24.151Z,56.95
2023-03-29T22:59:51.268Z,57.19
2023-03-29T23:02:18.242Z,57.22
2023-03-29T23:04:45.951Z,57.08
2023-03-29T23:07:12.824Z,57.04
2023-03-29T23:09:39.880Z,57.21
2023-03-29T23:12:07.022Z,57.16
2023-03-29T23:14:34.199Z,56.91
2023-03-29T23:17:01.287Z,56.87
2023-03-29T23:19:28.303Z,57.15
2023-03-29T23:21:55.262Z,57.34
2023-03-29T23:24:23.088Z,57.71
2023-03-29T23:26:50.002Z,57.26
2023-03-29T23:29:16.892Z,57.72
2023-03-29T23:31:44.621Z,57.17
2023-03-29T23:34:13.642Z,57.96
2023-03-29T23:36:40.673Z,57.54
2023-03-29T23:39:08.178Z,58.19
2023-03-29T23:41:35.243Z,58.58
2023-03-29T23:44:03.760Z,58.83
2023-03-29T23:46:31.531Z,58.47
2023-03-29T23:48:58.547Z,57.86
2023-03-29T23:51:28.705Z,56.66
2023-03-29T23:53:56.097Z,56.28
2023-03-29T23:56:23.182Z,56.84
2023-03-29T23:58:50.116Z,57.93
